Time;durP1;ratioP1;P1;durP2;ratioP2;P2;SDS_P1;SDS_P2;PMS_P1;PMS_P2;Temp;Humidity;BMP_temperature;BMP_pressure;BME280_temperature;BME280_humidity;BME280_pressure;Samples;Min_cycle;Max_cycle;Signal;HPM_P1;HPM_P2
2023/06/03 00:00:15;;;;;;;45.78;4.97;;;;;;;;;;5036159;28;20041;-71
2023/06/03 00:02:42;;;;;;;24.77;3.50;;;;;;;;;;5004934;28;20060;-70
2023/06/03 00:05:17;;;;;;;72.35;7.00;;;;;;;;;;5038447;28;20050;-74
2023/06/03 00:07:45;;;;;;;33.75;4.38;;;;;;;;;;5046191;28;20048;-71
2023/06/03 00:10:12;;;;;;;41.85;4.68;;;;;;;;;;5025017;28;20049;-70
2023/06/03 00:12:40;;;;;;;40.95;4.25;;;;;;;;;;5023413;28;20124;-71
2023/06/03 00:15:07;;;;;;;35.45;3.72;;;;;;;;;;5033390;28;20144;-76
2023/06/03 00:17:35;;;;;;;35.30;3.60;;;;;;;;;;5042035;28;20045;-70
2023/06/03 00:20:06;;;;;;;53.20;5.03;;;;;;;;;;5028153;28;20049;-71
2023/06/03 00:22:35;;;;;;;26.58;3.03;;;;;;;;;;5024500;28;20042;-74
2023/06/03 00:25:02;;;;;;;33.45;3.60;;;;;;;;;;5022414;28;20045;-72
2023/06/03 00:27:30;;;;;;;52.15;4.80;;;;;;;;;;5038333;28;20400;-70
2023/06/03 00:29:58;;;;;;;25.40;2.70;;;;;;;;;;5045832;28;20049;-73
2023/06/03 00:32:25;;;;;;;71.70;6.25;;;;;;;;;;5044621;28;20131;-72
2023/06/03 00:34:53;;;;;;;23.23;3.03;;;;;;;;;;5026910;28;20072;-72
2023/06/03 00:37:20;;;;;;;50.67;5.05;;;;;;;;;;5044000;28;20041;-71
2023/06/03 00:39:48;;;;;;;39.08;3.95;;;;;;;;;;5023685;28;20132;-71
2023/06/03 00:42:15;;;;;;;51.58;4.63;;;;;;;;;;5026879;28;20115;-71
2023/06/03 00:44:42;;;;;;;24.23;2.65;;;;;;;;;;5044006;28;20045;-72
2023/06/03 00:47:09;;;;;;;52.25;4.80;;;;;;;;;;5044306;28;20067;-75
2023/06/03 00:49:36;;;;;;;31.70;3.20;;;;;;;;;;5042441;28;20394;-71
2023/06/03 00:52:04;;;;;;;40.05;3.63;;;;;;;;;;5021937;28;20091;-74
2023/06/03 00:54:31;;;;;;;29.58;3.30;;;;;;;;;;5044154;28;20041;-71
2023/06/03 00:56:59;;;;;;;23.10;2.65;;;;;;;;;;5041098;28;20045;-71
2023/06/03 00:59:26;;;;;;;73.40;6.13;;;;;;;;;;5023550;28;20076;-72
2023/06/03 01:01:53;;;;;;;55.22;5.13;;;;;;;;;;5027095;28;20033;-74
2023/06/03 01:04:25;;;;;;;46.67;4.38;;;;;;;;;;5025268;28;20060;-72
2023/06/03 01:06:52;;;;;;;24.40;2.90;;;;;;;;;;5037335;28;20044;-71
2023/06/03 01:09:32;;;;;;;41.05;4.00;;;;;;;;;;5039407;28;20634;-72
2023/06/03 01:12:24;;;;;;;24.38;3.45;;;;;;;;;;5029372;28;20053;-72
2023/06/03 01:14:57;;;;;;;37.83;4.00;;;;;;;;;;5036633;28;20045;-70
2023/06/03 01:17:24;;;;;;;84.80;7.20;;;;;;;;;;5023237;28;20128;-71
2023/06/03 01:19:52;;;;;;;42.63;4.20;;;;;;;;;;5033305;28;20515;-71
2023/06/03 01:22:21;;;;;;;37.65;3.60;;;;;;;;;;5007816;28;20088;-70
2023/06/03 01:24:50;;;;;;;45.58;4.20;;;;;;;;;;5022110;28;20037;-73
2023/06/03 01:27:18;;;;;;;62.67;6.38;;;;;;;;;;5011765;28;20077;-71
2023/06/03 01:29:45;;;;;;;45.35;6.28;;;;;;;;;;5025920;28;20045;-75
2023/06/03 01:32:14;;;;;;;71.55;6.32;;;;;;;;;;5018951;28;20076;-72
2023/06/03 01:34:42;;;;;;;28.70;2.67;;;;;;;;;;5021320;28;20053;-70
2023/06/03 01:37:10;;;;;;;27.75;3.13;;;;;;;;;;5003986;28;20124;-71
2023/06/03 01:39:42;;;;;;;41.53;4.15;;;;;;;;;;5009750;28;20041;-73
2023/06/03 01:42:10;;;;;;;18.23;2.42;;;;;;;;;;5005733;28;20049;-73
2023/06/03 01:44:39;;;;;;;44.58;4.10;;;;;;;;;;5023381;28;20694;-72
2023/06/03 01:47:06;;;;;;;42.28;3.75;;;;;;;;;;5005735;28;20073;-70
2023/06/03 01:49:34;;;;;;;40.53;3.85;;;;;;;;;;5023798;28;20050;-75
2023/06/03 01:52:01;;;;;;;38.85;3.95;;;;;;;;;;5021297;28;20558;-70
2023/06/03 01:54:30;;;;;;;55.83;4.85;;;;;;;;;;5005344;28;20131;-70
2023/06/03 01:56:57;;;;;;;30.08;4.22;;;;;;;;;;5006028;28;20053;-71
2023/06/03 01:59:25;;;;;;;76.57;6.57;;;;;;;;;;5003689;28;20418;-73
2023/06/03 02:01:56;;;;;;;48.72;4.35;;;;;;;;;;5092377;22;20074;-74
2023/06/03 02:04:23;;;;;;;32.35;3.40;;;;;;;;;;5061452;28;20068;-73
2023/06/03 02:06:55;;;;;;;42.17;4.18;;;;;;;;;;5051315;28;20520;-73
2023/06/03 02:09:27;;;;;;;28.48;3.25;;;;;;;;;;5046381;28;20068;-71
2023/06/03 02:11:55;;;;;;;33.90;3.63;;;;;;;;;;5060223;28;20490;-71
2023/06/03 02:16:43;;;;;;;26.88;3.22;;;;;;;;;;5112386;27;20116;-69
2023/06/03 02:19:13;;;;;;;34.15;3.25;;;;;;;;;;5089438;28;20054;-70
2023/06/03 02:21:41;;;;;;;53.15;5.03;;;;;;;;;;5088965;28;20097;-70
2023/06/03 02:24:10;;;;;;;13.15;2.25;;;;;;;;;;5085612;28;20044;-70
2023/06/03 02:26:49;;;;;;;34.63;3.47;;;;;;;;;;5085649;28;20113;-71
2023/06/03 02:29:20;;;;;;;70.03;6.28;;;;;;;;;;5085888;28;20044;-71
2023/06/03 02:31:47;;;;;;;37.90;4.28;;;;;;;;;;5073908;28;20147;-71
2023/06/03 02:34:14;;;;;;;29.40;3.15;;;;;;;;;;5105218;28;20545;-71
2023/06/03 02:36:46;;;;;;;44.25;4.20;;;;;;;;;;5087992;28;20048;-70
2023/06/03 02:39:13;;;;;;;41.95;4.03;;;;;;;;;;5087858;28;21127;-71
2023/06/03 02:41:41;;;;;;;34.75;3.97;;;;;;;;;;5108051;28;20040;-70
2023/06/03 02:44:12;;;;;;;41.67;4.20;;;;;;;;;;5073576;28;20073;-70
2023/06/03 02:46:39;;;;;;;24.13;2.92;;;;;;;;;;5087948;28;20147;-72
2023/06/03 02:49:07;;;;;;;32.75;3.67;;;;;;;;;;5072647;28;20134;-72
2023/06/03 02:51:36;;;;;;;56.50;5.40;;;;;;;;;;5072634;28;20036;-71
2023/06/03 02:54:06;;;;;;;26.38;2.92;;;;;;;;;;5097919;28;20040;-71
2023/06/03 02:56:34;;;;;;;69.68;6.13;;;;;;;;;;5088631;28;20607;-70
2023/06/03 02:59:01;;;;;;;28.10;4.13;;;;;;;;;;5090701;28;20046;-72
2023/06/03 03:01:28;;;;;;;35.25;3.88;;;;;;;;;;5088688;28;20072;-70
2023/06/03 03:03:56;;;;;;;51.63;5.18;;;;;;;;;;5088610;28;20048;-70
2023/06/03 03:06:24;;;;;;;62.88;5.50;;;;;;;;;;5106767;28;20044;-71
2023/06/03 03:08:51;;;;;;;34.80;3.70;;;;;;;;;;5088874;28;20072;-72
2023/06/03 03:11:28;;;;;;;61.38;5.43;;;;;;;;;;5088896;28;20060;-71
2023/06/03 03:13:55;;;;;;;35.92;3.67;;;;;;;;;;5089586;28;20117;-72
2023/06/03 03:16:24;;;;;;;35.05;3.85;;;;;;;;;;5101674;28;20501;-72
2023/06/03 03:18:52;;;;;;;24.02;3.05;;;;;;;;;;5105886;28;20044;-71
2023/06/03 03:21:19;;;;;;;51.60;4.85;;;;;;;;;;5104309;28;20056;-73
2023/06/03 03:23:47;;;;;;;44.85;4.38;;;;;;;;;;5106516;28;20118;-70
2023/06/03 03:26:15;;;;;;;57.30;5.57;;;;;;;;;;5085601;28;20136;-71
2023/06/03 03:28:44;;;;;;;36.70;5.22;;;;;;;;;;5094198;28;20086;-71
2023/06/03 03:31:14;;;;;;;27.33;3.45;;;;;;;;;;5093088;28;20484;-72
2023/06/03 03:33:42;;;;;;;38.45;5.15;;;;;;;;;;5092981;28;20036;-72
2023/06/03 03:36:13;;;;;;;30.20;3.38;;;;;;;;;;5088017;28;20056;-72
2023/06/03 03:38:40;;;;;;;41.30;3.95;;;;;;;;;;5087928;28;20039;-72
2023/06/03 03:41:07;;;;;;;18.65;2.65;;;;;;;;;;5084526;28;20382;-72
2023/06/03 03:43:37;;;;;;;29.38;3.13;;;;;;;;;;5094132;28;20052;-72
2023/06/03 03:46:08;;;;;;;65.93;5.53;;;;;;;;;;5091568;28;20222;-71
2023/06/03 03:48:35;;;;;;;32.70;3.38;;;;;;;;;;5091002;28;20059;-73
2023/06/03 03:51:03;;;;;;;29.08;3.22;;;;;;;;;;5091927;28;20081;-72
2023/06/03 03:53:36;;;;;;;43.10;4.77;;;;;;;;;;5091600;28;20500;-72
2023/06/03 03:56:19;;;;;;;36.63;3.88;;;;;;;;;;5091466;28;20040;-72
2023/06/03 03:58:52;;;;;;;83.38;5.60;;;;;;;;;;5079117;28;20060;-72
2023/06/03 04:01:24;;;;;;;36.97;3.73;;;;;;;;;;5091283;28;20052;-73
2023/06/03 04:03:58;;;;;;;36.78;3.80;;;;;;;;;;5075642;28;20321;-73
2023/06/03 04:06:32;;;;;;;44.90;4.18;;;;;;;;;;5092360;28;20079;-71
2023/06/03 04:09:01;;;;;;;33.83;3.45;;;;;;;;;;5084204;28;20404;-73
2023/06/03 04:11:29;;;;;;;51.50;7.28;;;;;;;;;;5087003;28;20498;-72
2023/06/03 04:13:58;;;;;;;25.30;2.78;;;;;;;;;;5092016;28;20058;-72
2023/06/03 04:16:45;;;;;;;35.88;3.17;;;;;;;;;;5090486;28;20048;-73
2023/06/03 04:19:17;;;;;;;30.05;3.25;;;;;;;;;;5092431;28;20052;-73
2023/06/03 04:21:44;;;;;;;65.22;5.75;;;;;;;;;;5087946;28;20082;-73
2023/06/03 04:24:12;;;;;;;39.40;4.43;;;;;;;;;;5086441;28;20454;-73
2023/06/03 04:26:38;;;;;;;35.95;3.65;;;;;;;;;;5104046;28;20044;-73
2023/06/03 04:29:06;;;;;;;23.17;2.70;;;;;;;;;;5079961;28;20062;-73
2023/06/03 04:31:34;;;;;;;35.15;3.60;;;;;;;;;;5090425;28;20101;-72
2023/06/03 04:34:02;;;;;;;38.55;4.00;;;;;;;;;;5091793;28;20032;-73
2023/06/03 04:36:29;;;;;;;42.42;4.38;;;;;;;;;;5073754;28;20032;-73
2023/06/03 04:38:58;;;;;;;19.20;2.60;;;;;;;;;;5089842;28;20047;-73
2023/06/03 04:41:32;;;;;;;75.45;6.40;;;;;;;;;;5090490;28;20052;-72
2023/06/03 04:44:01;;;;;;;68.60;5.15;;;;;;;;;;5091956;28;20565;-71
2023/06/03 04:46:29;;;;;;;33.70;3.67;;;;;;;;;;5073991;28;20048;-72
2023/06/03 04:48:59;;;;;;;40.78;4.38;;;;;;;;;;5090058;28;20063;-72
2023/06/03 04:51:27;;;;;;;54.83;4.45;;;;;;;;;;5091445;28;20054;-71
2023/06/03 04:53:58;;;;;;;22.55;2.90;;;;;;;;;;5091491;28;20078;-71
2023/06/03 04:56:29;;;;;;;81.00;7.32;;;;;;;;;;5091557;28;20043;-72
2023/06/03 04:59:05;;;;;;;18.70;3.00;;;;;;;;;;5090163;28;20398;-72
2023/06/03 05:01:44;;;;;;;46.85;4.78;;;;;;;;;;5088255;28;20047;-72
2023/06/03 05:04:12;;;;;;;45.08;4.40;;;;;;;;;;5088628;28;20055;-72
2023/06/03 05:06:40;;;;;;;56.67;5.78;;;;;;;;;;5088539;28;20063;-73
2023/06/03 05:09:09;;;;;;;41.17;4.45;;;;;;;;;;5091066;28;20495;-72
2023/06/03 05:11:39;;;;;;;26.17;3.25;;;;;;;;;;5091260;28;20138;-72
2023/06/03 05:14:08;;;;;;;21.42;2.75;;;;;;;;;;5088396;28;20043;-72
2023/06/03 05:16:36;;;;;;;24.38;3.13;;;;;;;;;;5071712;28;20662;-72
2023/06/03 05:19:04;;;;;;;40.03;3.50;;;;;;;;;;5052540;28;20119;-71
2023/06/03 05:21:32;;;;;;;40.30;4.13;;;;;;;;;;5051235;28;20051;-72
2023/06/03 05:23:59;;;;;;;38.55;3.95;;;;;;;;;;5070777;28;20384;-72
2023/06/03 05:26:27;;;;;;;65.55;5.93;;;;;;;;;;5052577;28;20477;-72
2023/06/03 05:28:55;;;;;;;49.85;4.80;;;;;;;;;;5071192;28;20127;-72
2023/06/03 05:31:24;;;;;;;29.52;3.25;;;;;;;;;;5052038;28;20045;-72
2023/06/03 05:33:51;;;;;;;45.05;3.95;;;;;;;;;;5070460;28;20037;-73
2023/06/03 05:36:22;;;;;;;65.45;6.15;;;;;;;;;;5070210;28;20047;-73
2023/06/03 05:38:50;;;;;;;46.20;4.10;;;;;;;;;;5070325;28;20465;-72
2023/06/03 05:41:18;;;;;;;51.63;5.15;;;;;;;;;;5052829;28;20528;-73
2023/06/03 05:43:45;;;;;;;47.70;4.53;;;;;;;;;;5071090;28;20048;-71
2023/06/03 05:46:12;;;;;;;90.75;7.22;;;;;;;;;;5067614;28;20040;-71
2023/06/03 05:48:40;;;;;;;33.35;4.07;;;;;;;;;;5070433;28;20052;-74
2023/06/03 05:51:08;;;;;;;51.53;5.00;;;;;;;;;;5051789;28;20405;-72
2023/06/03 05:53:38;;;;;;;55.30;5.35;;;;;;;;;;5068436;28;20057;-72
2023/06/03 05:56:05;;;;;;;24.00;3.08;;;;;;;;;;5071223;28;20060;-73
2023/06/03 05:58:32;;;;;;;55.20;5.13;;;;;;;;;;5069833;28;20048;-72
2023/06/03 06:01:00;;;;;;;37.17;4.00;;;;;;;;;;5051976;28;20048;-72
2023/06/03 06:03:27;;;;;;;62.58;6.00;;;;;;;;;;5051618;28;20051;-73
2023/06/03 06:05:55;;;;;;;45.17;4.10;;;;;;;;;;5052137;28;20493;-72
2023/06/03 06:08:23;;;;;;;80.05;6.53;;;;;;;;;;5052158;28;20041;-73
2023/06/03 06:10:50;;;;;;;29.08;3.80;;;;;;;;;;5050917;28;20056;-72
2023/06/03 06:13:17;;;;;;;36.17;4.03;;;;;;;;;;5070120;28;20040;-72
2023/06/03 06:16:04;;;;;;;33.08;3.63;;;;;;;;;;5070100;28;20540;-72
2023/06/03 06:18:33;;;;;;;41.33;4.13;;;;;;;;;;5087285;28;20397;-72
2023/06/03 06:21:01;;;;;;;91.63;7.18;;;;;;;;;;5090178;28;20039;-72
2023/06/03 06:23:30;;;;;;;124.00;11.13;;;;;;;;;;5089585;28;20036;-71
2023/06/03 06:25:58;;;;;;;49.28;4.25;;;;;;;;;;5090023;28;20400;-71
2023/06/03 06:28:27;;;;;;;32.83;3.15;;;;;;;;;;5089916;28;20042;-71
2023/06/03 06:31:04;;;;;;;37.97;3.25;;;;;;;;;;5090171;28;20036;-71
2023/06/03 06:33:39;;;;;;;24.88;2.35;;;;;;;;;;5086027;28;20044;-70
2023/06/03 06:36:26;;;;;;;32.22;2.67;;;;;;;;;;5072146;28;20455;-71
2023/06/03 06:38:53;;;;;;;29.20;2.92;;;;;;;;;;5089021;28;20094;-70
2023/06/03 06:41:21;;;;;;;61.30;5.05;;;;;;;;;;5088701;28;20055;-71
2023/06/03 06:43:48;;;;;;;39.85;3.40;;;;;;;;;;5089199;28;20048;-71
2023/06/03 06:46:16;;;;;;;21.58;1.98;;;;;;;;;;5084104;28;20068;-71
2023/06/03 06:48:44;;;;;;;18.40;1.75;;;;;;;;;;5082626;28;20048;-70
2023/06/03 06:51:11;;;;;;;39.75;3.35;;;;;;;;;;5087940;28;20048;-71
2023/06/03 06:53:47;;;;;;;33.13;3.45;;;;;;;;;;5089807;28;20080;-71
2023/06/03 06:56:17;;;;;;;75.55;5.93;;;;;;;;;;5083882;28;20048;-71
2023/06/03 06:58:53;;;;;;;22.40;2.75;;;;;;;;;;5074634;28;20047;-70
2023/06/03 07:01:21;;;;;;;36.85;3.15;;;;;;;;;;5088961;28;20346;-71
2023/06/03 07:03:52;;;;;;;29.27;4.18;;;;;;;;;;5072499;28;20381;-73
2023/06/03 07:06:19;;;;;;;50.75;4.05;;;;;;;;;;5093322;28;20036;-73
2023/06/03 07:08:51;;;;;;;49.53;3.95;;;;;;;;;;5088544;28;20040;-70
2023/06/03 07:11:21;;;;;;;53.38;4.38;;;;;;;;;;5093122;28;20058;-71
2023/06/03 07:13:53;;;;;;;28.90;2.33;;;;;;;;;;5091761;28;20051;-70
2023/06/03 07:16:22;;;;;;;19.67;2.10;;;;;;;;;;5092250;28;20051;-71
2023/06/03 07:18:53;;;;;;;22.00;1.95;;;;;;;;;;5091967;28;20039;-70
2023/06/03 07:21:41;;;;;;;42.78;3.95;;;;;;;;;;5090639;28;20047;-70
2023/06/03 07:24:11;;;;;;;33.40;2.55;;;;;;;;;;5093596;28;20093;-70
2023/06/03 07:26:41;;;;;;;31.92;2.88;;;;;;;;;;5092459;28;20048;-71
2023/06/03 07:29:09;;;;;;;34.30;2.85;;;;;;;;;;5092088;28;20127;-70
2023/06/03 07:31:36;;;;;;;19.92;2.33;;;;;;;;;;5091774;28;20101;-72
2023/06/03 07:34:04;;;;;;;35.33;2.75;;;;;;;;;;5091456;28;20134;-72
2023/06/03 07:36:35;;;;;;;53.67;4.88;;;;;;;;;;5083240;28;20117;-70
2023/06/03 07:39:04;;;;;;;11.75;1.85;;;;;;;;;;5092224;28;20048;-71
2023/06/03 07:41:38;;;;;;;41.22;3.47;;;;;;;;;;5090985;28;20117;-71
2023/06/03 07:44:11;;;;;;;18.77;1.63;;;;;;;;;;5092982;28;20140;-72
2023/06/03 07:46:45;;;;;;;23.50;1.90;;;;;;;;;;5093664;28;20044;-72
2023/06/03 07:49:14;;;;;;;39.30;3.13;;;;;;;;;;5091373;28;20051;-70
2023/06/03 07:51:44;;;;;;;29.60;2.92;;;;;;;;;;5092748;28;20040;-72
2023/06/03 07:54:11;;;;;;;38.20;3.08;;;;;;;;;;5092356;28;20036;-70
2023/06/03 07:56:38;;;;;;;33.50;2.70;;;;;;;;;;5091733;28;20078;-70
2023/06/03 07:59:08;;;;;;;29.15;2.60;;;;;;;;;;5094015;28;20047;-72
2023/06/03 08:01:35;;;;;;;27.52;2.22;;;;;;;;;;5092958;28;20048;-71
2023/06/03 08:04:23;;;;;;;13.63;1.33;;;;;;;;;;5086951;28;20036;-70
2023/06/03 08:06:52;;;;;;;22.60;1.75;;;;;;;;;;5105469;28;20036;-72
2023/06/03 08:09:30;;;;;;;32.28;3.03;;;;;;;;;;5090449;28;20044;-70
2023/06/03 08:11:57;;;;;;;34.35;2.58;;;;;;;;;;5086484;28;20059;-72
2023/06/03 08:14:25;;;;;;;159.02;15.02;;;;;;;;;;5091180;28;20520;-71
2023/06/03 08:16:53;;;;;;;17.60;1.52;;;;;;;;;;5055595;28;20072;-71
2023/06/03 08:19:20;;;;;;;41.30;3.33;;;;;;;;;;5072183;28;20040;-71
2023/06/03 08:21:48;;;;;;;50.95;3.85;;;;;;;;;;5050279;28;20049;-70
2023/06/03 08:24:15;;;;;;;30.17;2.28;;;;;;;;;;5054237;28;20037;-71
2023/06/03 08:26:45;;;;;;;52.80;3.90;;;;;;;;;;5069135;28;20489;-72
2023/06/03 08:29:12;;;;;;;27.88;2.15;;;;;;;;;;5055305;28;20045;-71
2023/06/03 08:31:39;;;;;;;27.98;2.10;;;;;;;;;;5052378;28;20553;-71
2023/06/03 08:34:07;;;;;;;55.38;4.05;;;;;;;;;;5052641;28;20052;-71
2023/06/03 08:36:35;;;;;;;63.53;5.35;;;;;;;;;;5071595;28;20048;-71
2023/06/03 08:39:02;;;;;;;36.33;2.45;;;;;;;;;;5070520;28;20050;-72
2023/06/03 08:41:35;;;;;;;91.93;7.53;;;;;;;;;;5070836;28;20032;-71
2023/06/03 08:44:08;;;;;;;17.92;2.00;;;;;;;;;;5072822;28;20044;-71
2023/06/03 08:46:45;;;;;;;20.55;2.03;;;;;;;;;;5037424;28;20048;-71
2023/06/03 08:49:17;;;;;;;41.97;3.10;;;;;;;;;;5068306;28;20041;-71
2023/06/03 08:51:48;;;;;;;52.28;3.97;;;;;;;;;;5065997;28;20129;-72
2023/06/03 08:54:17;;;;;;;27.75;2.08;;;;;;;;;;5053747;28;20049;-72
2023/06/03 08:56:47;;;;;;;38.67;3.15;;;;;;;;;;5036769;28;20044;-72
2023/06/03 08:59:18;;;;;;;49.22;4.70;;;;;;;;;;5050723;28;20551;-75
2023/06/03 09:01:46;;;;;;;27.52;2.13;;;;;;;;;;5035427;28;20058;-71
2023/06/03 09:04:13;;;;;;;111.20;11.93;;;;;;;;;;5070192;28;20043;-72
2023/06/03 09:06:46;;;;;;;22.65;1.85;;;;;;;;;;5037306;28;20045;-71
2023/06/03 09:09:14;;;;;;;61.08;5.45;;;;;;;;;;5047732;28;20520;-72
2023/06/03 09:11:43;;;;;;;30.58;2.50;;;;;;;;;;5045618;28;20052;-75
2023/06/03 09:14:10;;;;;;;31.30;3.22;;;;;;;;;;5051290;28;20041;-71
2023/06/03 09:16:37;;;;;;;130.20;9.95;;;;;;;;;;5086578;28;20083;-72
2023/06/03 09:19:04;;;;;;;29.23;2.50;;;;;;;;;;5091444;28;20052;-72
2023/06/03 09:21:31;;;;;;;54.55;4.13;;;;;;;;;;5088854;28;20123;-73
2023/06/03 09:23:58;;;;;;;17.67;1.42;;;;;;;;;;5090926;28;20559;-71
2023/06/03 09:26:26;;;;;;;70.18;4.82;;;;;;;;;;5073128;28;20074;-71
2023/06/03 09:28:53;;;;;;;31.92;2.42;;;;;;;;;;5089811;28;20040;-71
2023/06/03 09:31:21;;;;;;;38.30;2.65;;;;;;;;;;5089198;28;20043;-75
2023/06/03 09:33:49;;;;;;;43.33;2.67;;;;;;;;;;5089541;28;20544;-70
2023/06/03 09:36:17;;;;;;;33.67;2.67;;;;;;;;;;5091255;28;20055;-74
2023/06/03 09:38:50;;;;;;;42.53;2.97;;;;;;;;;;5088214;28;20115;-71
2023/06/03 09:41:21;;;;;;;45.63;3.35;;;;;;;;;;5089375;28;20040;-74
2023/06/03 09:43:52;;;;;;;15.13;1.63;;;;;;;;;;5091748;28;20548;-70
2023/06/03 09:46:19;;;;;;;68.75;3.67;;;;;;;;;;5087639;28;20130;-71
2023/06/03 09:48:46;;;;;;;41.63;3.42;;;;;;;;;;5090502;28;20040;-71
2023/06/03 09:51:14;;;;;;;39.00;2.95;;;;;;;;;;5088971;28;20075;-71
2023/06/03 09:53:41;;;;;;;24.35;2.67;;;;;;;;;;5091221;28;20113;-70
2023/06/03 09:56:22;;;;;;;51.38;3.22;;;;;;;;;;5091874;28;20531;-71
2023/06/03 09:58:51;;;;;;;29.70;2.50;;;;;;;;;;5091500;28;20055;-70
2023/06/03 10:01:31;;;;;;;26.05;1.95;;;;;;;;;;5091126;28;20569;-70
2023/06/03 10:03:59;;;;;;;30.10;2.25;;;;;;;;;;5085297;28;20152;-71
2023/06/03 10:06:26;;;;;;;43.13;3.22;;;;;;;;;;5071757;28;20040;-71
2023/06/03 10:08:53;;;;;;;169.75;11.55;;;;;;;;;;5090705;28;20047;-71
2023/06/03 10:11:22;;;;;;;54.20;3.85;;;;;;;;;;5089277;28;20040;-72
2023/06/03 10:14:01;;;;;;;24.30;3.03;;;;;;;;;;5090088;28;20076;-71
2023/06/03 10:16:28;;;;;;;39.08;3.00;;;;;;;;;;5070108;28;20056;-71
2023/06/03 10:18:56;;;;;;;28.50;2.97;;;;;;;;;;5052232;28;20116;-71
2023/06/03 10:21:24;;;;;;;47.40;3.63;;;;;;;;;;5051309;28;20036;-71
2023/06/03 10:23:53;;;;;;;18.80;2.35;;;;;;;;;;5069739;28;20077;-72
2023/06/03 10:26:21;;;;;;;73.45;6.60;;;;;;;;;;5052789;28;20048;-71
2023/06/03 10:28:49;;;;;;;19.38;1.88;;;;;;;;;;5034619;28;20051;-72
2023/06/03 10:31:16;;;;;;;43.78;3.10;;;;;;;;;;5070015;28;20131;-72
2023/06/03 10:33:45;;;;;;;48.08;2.95;;;;;;;;;;5069667;28;20098;-72
2023/06/03 10:36:13;;;;;;;39.67;2.85;;;;;;;;;;5035847;28;20033;-73
2023/06/03 10:38:40;;;;;;;48.50;2.75;;;;;;;;;;5074008;28;20051;-71
2023/06/03 10:41:08;;;;;;;55.97;3.63;;;;;;;;;;5045062;28;20049;-72
2023/06/03 10:43:37;;;;;;;43.75;3.33;;;;;;;;;;5073625;28;20102;-72
2023/06/03 10:46:04;;;;;;;23.20;2.28;;;;;;;;;;5073451;28;20068;-72
2023/06/03 10:48:32;;;;;;;39.90;3.10;;;;;;;;;;5073750;28;20090;-73
2023/06/03 10:51:05;;;;;;;36.72;3.05;;;;;;;;;;5073825;28;20048;-73
2023/06/03 10:53:33;;;;;;;60.58;4.82;;;;;;;;;;5054266;28;20044;-71
2023/06/03 10:56:21;;;;;;;102.68;9.85;;;;;;;;;;5055346;28;20032;-71
2023/06/03 10:58:59;;;;;;;24.05;2.00;;;;;;;;;;5073155;28;20128;-71
2023/06/03 11:01:46;;;;;;;37.47;2.85;;;;;;;;;;5053452;28;20094;-70
2023/06/03 11:04:15;;;;;;;23.15;2.00;;;;;;;;;;5062455;28;20060;-71
2023/06/03 11:06:42;;;;;;;33.28;2.55;;;;;;;;;;5072929;28;20044;-72
2023/06/03 11:09:12;;;;;;;31.33;2.22;;;;;;;;;;5047097;28;20044;-73
2023/06/03 11:11:48;;;;;;;66.70;5.40;;;;;;;;;;5038727;28;20068;-71
2023/06/03 11:14:24;;;;;;;32.42;2.50;;;;;;;;;;5053720;28;20047;-70
2023/06/03 11:16:58;;;;;;;15.77;1.40;;;;;;;;;;5074651;28;20045;-70
2023/06/03 11:19:35;;;;;;;28.55;2.22;;;;;;;;;;5055220;28;20063;-70
2023/06/03 11:22:04;;;;;;;16.75;1.52;;;;;;;;;;5069826;28;20040;-72
2023/06/03 11:24:37;;;;;;;58.95;4.88;;;;;;;;;;5072598;28;20043;-71
2023/06/03 11:27:14;;;;;;;30.90;2.67;;;;;;;;;;5072463;28;20453;-70
2023/06/03 11:29:51;;;;;;;61.40;4.18;;;;;;;;;;5072879;28;20397;-71
2023/06/03 11:32:19;;;;;;;47.88;3.58;;;;;;;;;;5070104;28;20123;-73
2023/06/03 11:35:13;;;;;;;23.17;1.85;;;;;;;;;;5039968;28;20036;-71
2023/06/03 11:37:46;;;;;;;100.30;9.32;;;;;;;;;;5059564;28;20040;-71
2023/06/03 11:40:17;;;;;;;61.22;5.22;;;;;;;;;;5072395;28;20040;-72
2023/06/03 11:42:47;;;;;;;50.83;4.90;;;;;;;;;;5072811;28;20045;-71
2023/06/03 11:45:28;;;;;;;73.53;6.55;;;;;;;;;;5038358;28;20072;-72
2023/06/03 11:48:09;;;;;;;33.83;2.65;;;;;;;;;;5045679;28;20058;-72
2023/06/03 11:50:45;;;;;;;31.70;2.42;;;;;;;;;;5072714;28;20385;-72
2023/06/03 11:53:31;;;;;;;35.37;2.73;;;;;;;;;;5055618;28;20048;-72
2023/06/03 11:56:06;;;;;;;15.80;2.28;;;;;;;;;;5042146;28;20058;-72
2023/06/03 11:58:34;;;;;;;26.85;2.22;;;;;;;;;;5054292;28;20114;-71
2023/06/03 12:01:16;;;;;;;16.08;1.33;;;;;;;;;;5054312;28;20409;-71
2023/06/03 12:03:56;;;;;;;11.02;1.13;;;;;;;;;;5052036;28;20064;-72
2023/06/03 12:06:23;;;;;;;33.60;2.60;;;;;;;;;;5071745;28;20060;-72
2023/06/03 12:08:51;;;;;;;41.40;3.72;;;;;;;;;;5046278;28;20087;-72
2023/06/03 12:11:29;;;;;;;74.90;6.10;;;;;;;;;;5072831;28;20083;-72
2023/06/03 12:13:57;;;;;;;50.78;3.63;;;;;;;;;;5072012;28;20045;-70
2023/06/03 12:16:28;;;;;;;22.75;1.77;;;;;;;;;;5084967;28;20083;-71
2023/06/03 12:18:56;;;;;;;25.90;2.95;;;;;;;;;;5090754;28;20531;-71
2023/06/03 12:21:23;;;;;;;48.95;3.35;;;;;;;;;;5091674;28;20036;-73
2023/06/03 12:23:50;;;;;;;54.92;7.05;;;;;;;;;;5092058;28;20036;-73
2023/06/03 12:26:17;;;;;;;53.95;4.45;;;;;;;;;;5091492;28;20036;-72
2023/06/03 12:28:46;;;;;;;21.77;1.98;;;;;;;;;;5090974;28;20055;-71
2023/06/03 12:31:14;;;;;;;35.28;2.83;;;;;;;;;;5090202;28;20048;-71
2023/06/03 12:33:42;;;;;;;15.93;1.35;;;;;;;;;;5090550;28;20473;-71
2023/06/03 12:36:09;;;;;;;32.22;2.42;;;;;;;;;;5089638;28;20199;-71
2023/06/03 12:38:52;;;;;;;87.18;6.78;;;;;;;;;;5090153;28;20135;-72
2023/06/03 12:41:24;;;;;;;76.03;5.47;;;;;;;;;;5085255;28;20059;-71
2023/06/03 12:44:01;;;;;;;29.80;2.38;;;;;;;;;;5081617;28;20048;-70
2023/06/03 12:46:30;;;;;;;70.85;4.93;;;;;;;;;;5088844;28;20408;-71
2023/06/03 12:49:13;;;;;;;121.22;6.65;;;;;;;;;;5088149;28;20071;-71
2023/06/03 12:51:41;;;;;;;37.97;3.10;;;;;;;;;;5087990;28;20060;-72
2023/06/03 12:54:18;;;;;;;63.70;6.18;;;;;;;;;;5081869;28;20028;-73
2023/06/03 12:57:02;;;;;;;33.95;2.80;;;;;;;;;;5088439;28;20060;-72
2023/06/03 12:59:32;;;;;;;78.53;5.38;;;;;;;;;;5081333;28;20040;-71
2023/06/03 13:02:05;;;;;;;32.60;2.67;;;;;;;;;;5067200;28;20059;-71
2023/06/03 13:04:38;;;;;;;52.00;4.05;;;;;;;;;;5087993;28;20059;-73
2023/06/03 13:07:08;;;;;;;28.38;2.58;;;;;;;;;;5087189;28;20040;-71
2023/06/03 13:09:37;;;;;;;55.47;4.18;;;;;;;;;;5087794;28;20050;-72
2023/06/03 13:12:08;;;;;;;36.20;2.72;;;;;;;;;;5088015;28;20082;-71
2023/06/03 13:14:38;;;;;;;69.20;5.13;;;;;;;;;;5067035;28;20101;-72
2023/06/03 13:17:06;;;;;;;42.15;3.33;;;;;;;;;;5036355;28;20432;-70
2023/06/03 13:19:35;;;;;;;35.00;2.83;;;;;;;;;;5071632;28;20048;-72
2023/06/03 13:22:01;;;;;;;22.85;2.22;;;;;;;;;;5071389;28;20043;-72
2023/06/03 13:24:28;;;;;;;40.75;3.30;;;;;;;;;;5070430;28;20040;-71
2023/06/03 13:26:54;;;;;;;92.28;7.10;;;;;;;;;;5071161;28;20539;-68
2023/06/03 13:29:21;;;;;;;63.33;5.43;;;;;;;;;;5053438;28;20053;-67
2023/06/03 13:31:48;;;;;;;34.92;2.65;;;;;;;;;;5072146;28;20047;-70
2023/06/03 13:34:14;;;;;;;35.80;2.55;;;;;;;;;;5068015;28;20040;-72
2023/06/03 13:36:41;;;;;;;116.03;7.78;;;;;;;;;;5070374;28;20063;-70
2023/06/03 13:39:07;;;;;;;19.13;1.63;;;;;;;;;;5070966;28;20043;-69
2023/06/03 13:41:34;;;;;;;65.70;4.85;;;;;;;;;;5053166;28;20060;-72
2023/06/03 13:44:01;;;;;;;21.25;1.60;;;;;;;;;;5072129;28;20059;-71
2023/06/03 13:46:28;;;;;;;30.77;2.40;;;;;;;;;;5052750;28;20041;-71
2023/06/03 13:48:54;;;;;;;52.63;4.65;;;;;;;;;;5070859;28;20119;-68
2023/06/03 13:51:21;;;;;;;21.42;1.88;;;;;;;;;;5052811;28;20810;-70
2023/06/03 13:53:48;;;;;;;31.67;2.42;;;;;;;;;;5070966;28;20457;-70
2023/06/03 13:56:15;;;;;;;23.38;1.75;;;;;;;;;;5071825;28;20048;-70
2023/06/03 13:58:41;;;;;;;27.50;2.50;;;;;;;;;;5046919;28;20839;-69
2023/06/03 14:01:08;;;;;;;29.58;2.50;;;;;;;;;;5062301;28;20040;-71
2023/06/03 14:03:34;;;;;;;28.60;2.58;;;;;;;;;;5066957;28;20112;-68
2023/06/03 14:06:01;;;;;;;24.40;2.08;;;;;;;;;;5065773;28;20519;-69
2023/06/03 14:08:28;;;;;;;84.70;5.95;;;;;;;;;;5050267;28;20040;-70
2023/06/03 14:10:55;;;;;;;19.05;1.73;;;;;;;;;;5052845;28;20044;-69
2023/06/03 14:13:22;;;;;;;20.00;1.63;;;;;;;;;;5057939;28;20428;-70
2023/06/03 14:15:48;;;;;;;23.92;1.70;;;;;;;;;;5066356;28;20051;-69
2023/06/03 14:18:15;;;;;;;171.57;13.85;;;;;;;;;;5066326;28;20064;-69
2023/06/03 14:20:42;;;;;;;51.95;3.80;;;;;;;;;;5070180;28;20051;-69
2023/06/03 14:23:11;;;;;;;13.05;1.30;;;;;;;;;;5070224;28;20067;-69
2023/06/03 14:25:39;;;;;;;44.85;3.80;;;;;;;;;;5048220;28;20126;-69
2023/06/03 14:28:13;;;;;;;23.13;2.13;;;;;;;;;;5036902;28;20497;-70
2023/06/03 14:30:44;;;;;;;61.40;4.30;;;;;;;;;;5032603;28;20040;-70
2023/06/03 14:33:14;;;;;;;45.97;3.40;;;;;;;;;;5069390;28;20440;-69
2023/06/03 14:35:44;;;;;;;43.72;3.28;;;;;;;;;;5066418;28;20041;-69
2023/06/03 14:38:19;;;;;;;22.52;2.13;;;;;;;;;;5037110;28;20036;-70
2023/06/03 14:40:47;;;;;;;40.35;2.97;;;;;;;;;;5050601;28;20040;-69
2023/06/03 14:43:16;;;;;;;70.18;4.18;;;;;;;;;;5034239;28;20037;-70
2023/06/03 14:45:43;;;;;;;28.92;2.47;;;;;;;;;;5066515;28;20043;-71